sensor_id;sensor_type;location;lat;lon;timestamp;temperature;humidity
14405;DHT22;14983;50.866;4.304;2022-10-13T00:01:13;12.90;99.90
14405;DHT22;14983;50.866;4.304;2022-10-13T00:03:52;13.30;99.90
14405;DHT22;14983;50.866;4.304;2022-10-13T00:06:21;13.40;99.90
14405;DHT22;14983;50.866;4.304;2022-10-13T00:08:58;12.80;99.90
14405;DHT22;14983;50.866;4.304;2022-10-13T00:11:39;13.70;99.90
14405;DHT22;14983;50.866;4.304;2022-10-13T00:14:18;13.50;99.90
14405;DHT22;14983;50.866;4.304;2022-10-13T00:16:59;13.90;99.90
14405;DHT22;14983;50.866;4.304;2022-10-13T00:19:54;13.30;99.90
14405;DHT22;14983;50.866;4.304;2022-10-13T00:22:21;13.50;99.90
14405;DHT22;14983;50.866;4.304;2022-10-13T00:25:00;13.40;99.90
14405;DHT22;14983;50.866;4.304;2022-10-13T00:27:30;13.50;99.90
14405;DHT22;14983;50.866;4.304;2022-10-13T00:29:59;13.40;99.90
14405;DHT22;14983;50.866;4.304;2022-10-13T00:32:29;13.40;99.90
14405;DHT22;14983;50.866;4.304;2022-10-13T00:35:00;13.40;99.90
14405;DHT22;14983;50.866;4.304;2022-10-13T00:37:37;13.30;99.90
14405;DHT22;14983;50.866;4.304;2022-10-13T00:40:22;13.30;99.90
14405;DHT22;14983;50.866;4.304;2022-10-13T00:43:01;13.30;99.90
14405;DHT22;14983;50.866;4.304;2022-10-13T00:45:31;13.20;99.90
14405;DHT22;14983;50.866;4.304;2022-10-13T00:48:11;13.20;99.90
14405;DHT22;14983;50.866;4.304;2022-10-13T00:50:42;13.20;99.90
14405;DHT22;14983;50.866;4.304;2022-10-13T00:53:12;12.60;99.90
14405;DHT22;14983;50.866;4.304;2022-10-13T00:56:02;13.10;99.90
14405;DHT22;14983;50.866;4.304;2022-10-13T00:58:35;13.10;99.90
14405;DHT22;14983;50.866;4.304;2022-10-13T01:01:05;13.10;99.90
14405;DHT22;14983;50.866;4.304;2022-10-13T01:03:43;13.00;99.90
14405;DHT22;14983;50.866;4.304;2022-10-13T01:06:18;13.10;99.90
14405;DHT22;14983;50.866;4.304;2022-10-13T01:08:50;13.10;99.90
14405;DHT22;14983;50.866;4.304;2022-10-13T01:11:41;13.30;99.90
14405;DHT22;14983;50.866;4.304;2022-10-13T01:14:26;13.00;99.90
14405;DHT22;14983;50.866;4.304;2022-10-13T01:17:10;13.00;99.90
14405;DHT22;14983;50.866;4.304;2022-10-13T01:20:15;13.00;99.90
14405;DHT22;14983;50.866;4.304;2022-10-13T01:23:02;13.00;99.90
14405;DHT22;14983;50.866;4.304;2022-10-13T01:25:52;13.00;99.90
14405;DHT22;14983;50.866;4.304;2022-10-13T01:28:34;13.00;99.90
14405;DHT22;14983;50.866;4.304;2022-10-13T01:31:19;13.00;99.90
14405;DHT22;14983;50.866;4.304;2022-10-13T01:33:55;12.90;99.90
14405;DHT22;14983;50.866;4.304;2022-10-13T01:36:36;12.80;99.90
14405;DHT22;14983;50.866;4.304;2022-10-13T01:39:13;12.90;99.90
14405;DHT22;14983;50.866;4.304;2022-10-13T01:41:48;12.90;99.90
14405;DHT22;14983;50.866;4.304;2022-10-13T01:44:24;13.20;99.90
14405;DHT22;14983;50.866;4.304;2022-10-13T01:47:04;12.80;99.90
14405;DHT22;14983;50.866;4.304;2022-10-13T01:49:42;12.80;99.90
14405;DHT22;14983;50.866;4.304;2022-10-13T01:52:33;12.80;99.90
14405;DHT22;14983;50.866;4.304;2022-10-13T01:55:18;12.90;99.90
14405;DHT22;14983;50.866;4.304;2022-10-13T01:58:30;12.80;99.90
14405;DHT22;14983;50.866;4.304;2022-10-13T02:01:15;12.80;99.90
14405;DHT22;14983;50.866;4.304;2022-10-13T02:04:01;12.80;99.90
14405;DHT22;14983;50.866;4.304;2022-10-13T02:06:39;12.80;99.90
14405;DHT22;14983;50.866;4.304;2022-10-13T02:09:23;13.20;99.90
14405;DHT22;14983;50.866;4.304;2022-10-13T02:11:58;12.80;99.90
14405;DHT22;14983;50.866;4.304;2022-10-13T02:14:39;14.20;99.90
14405;DHT22;14983;50.866;4.304;2022-10-13T02:17:37;12.80;99.90
14405;DHT22;14983;50.866;4.304;2022-10-13T02:23:36;12.70;99.90
14405;DHT22;14983;50.866;4.304;2022-10-13T02:26:06;12.80;99.90
14405;DHT22;14983;50.866;4.304;2022-10-13T02:29:11;12.80;99.90
14405;DHT22;14983;50.866;4.304;2022-10-13T02:31:45;12.80;99.90
14405;DHT22;14983;50.866;4.304;2022-10-13T02:34:15;12.80;99.90
14405;DHT22;14983;50.866;4.304;2022-10-13T02:36:47;12.80;99.90
14405;DHT22;14983;50.866;4.304;2022-10-13T02:39:31;12.80;99.90
14405;DHT22;14983;50.866;4.304;2022-10-13T02:42:17;12.70;99.90
14405;DHT22;14983;50.866;4.304;2022-10-13T02:44:45;12.70;99.90
14405;DHT22;14983;50.866;4.304;2022-10-13T02:47:28;13.20;99.90
14405;DHT22;14983;50.866;4.304;2022-10-13T02:50:36;12.70;99.90
14405;DHT22;14983;50.866;4.304;2022-10-13T02:53:09;12.70;99.90
14405;DHT22;14983;50.866;4.304;2022-10-13T02:55:47;12.70;99.90
14405;DHT22;14983;50.866;4.304;2022-10-13T02:58:35;12.80;99.90
14405;DHT22;14983;50.866;4.304;2022-10-13T03:01:12;12.80;99.90
14405;DHT22;14983;50.866;4.304;2022-10-13T03:03:42;12.70;99.90
14405;DHT22;14983;50.866;4.304;2022-10-13T03:06:16;13.10;99.90
14405;DHT22;14983;50.866;4.304;2022-10-13T03:08:50;12.70;99.90
14405;DHT22;14983;50.866;4.304;2022-10-13T03:11:32;12.60;99.90
14405;DHT22;14983;50.866;4.304;2022-10-13T03:14:06;13.40;99.90
14405;DHT22;14983;50.866;4.304;2022-10-13T03:16:38;12.60;99.90
14405;DHT22;14983;50.866;4.304;2022-10-13T03:19:19;12.60;99.90
14405;DHT22;14983;50.866;4.304;2022-10-13T03:21:50;12.60;99.90
14405;DHT22;14983;50.866;4.304;2022-10-13T03:24:22;12.60;99.90
14405;DHT22;14983;50.866;4.304;2022-10-13T03:26:52;12.60;99.90
14405;DHT22;14983;50.866;4.304;2022-10-13T03:29:28;12.60;99.90
14405;DHT22;14983;50.866;4.304;2022-10-13T03:32:06;12.70;99.90
14405;DHT22;14983;50.866;4.304;2022-10-13T03:34:36;12.60;99.90
14405;DHT22;14983;50.866;4.304;2022-10-13T03:37:05;12.80;99.90
14405;DHT22;14983;50.866;4.304;2022-10-13T03:39:34;12.60;99.90
14405;DHT22;14983;50.866;4.304;2022-10-13T03:42:12;12.60;99.90
14405;DHT22;14983;50.866;4.304;2022-10-13T03:45:02;12.50;99.90
14405;DHT22;14983;50.866;4.304;2022-10-13T03:47:38;12.60;99.90
14405;DHT22;14983;50.866;4.304;2022-10-13T03:50:18;12.70;99.90
14405;DHT22;14983;50.866;4.304;2022-10-13T03:52:48;12.70;99.90
14405;DHT22;14983;50.866;4.304;2022-10-13T03:55:20;12.70;99.90
14405;DHT22;14983;50.866;4.304;2022-10-13T03:57:49;12.70;99.90
14405;DHT22;14983;50.866;4.304;2022-10-13T04:00:21;12.60;99.90
14405;DHT22;14983;50.866;4.304;2022-10-13T04:03:02;12.50;99.90
14405;DHT22;14983;50.866;4.304;2022-10-13T04:05:29;12.50;99.90
14405;DHT22;14983;50.866;4.304;2022-10-13T04:08:00;12.50;99.90
14405;DHT22;14983;50.866;4.304;2022-10-13T04:10:30;12.60;99.90
14405;DHT22;14983;50.866;4.304;2022-10-13T04:13:03;12.60;99.90
14405;DHT22;14983;50.866;4.304;2022-10-13T04:15:35;12.60;99.90
14405;DHT22;14983;50.866;4.304;2022-10-13T04:18:07;12.60;99.90
14405;DHT22;14983;50.866;4.304;2022-10-13T04:20:37;12.60;99.90
14405;DHT22;14983;50.866;4.304;2022-10-13T04:23:11;12.60;99.90
14405;DHT22;14983;50.866;4.304;2022-10-13T04:25:40;12.60;99.90
14405;DHT22;14983;50.866;4.304;2022-10-13T04:28:34;12.60;99.90
14405;DHT22;14983;50.866;4.304;2022-10-13T04:31:03;12.60;99.90
14405;DHT22;14983;50.866;4.304;2022-10-13T04:33:39;12.60;99.90
14405;DHT22;14983;50.866;4.304;2022-10-13T04:36:29;12.70;99.90
14405;DHT22;14983;50.866;4.304;2022-10-13T04:38:57;12.70;99.90
14405;DHT22;14983;50.866;4.304;2022-10-13T04:41:25;12.70;99.90
14405;DHT22;14983;50.866;4.304;2022-10-13T04:44:13;12.90;99.90
14405;DHT22;14983;50.866;4.304;2022-10-13T04:46:42;13.00;99.90
14405;DHT22;14983;50.866;4.304;2022-10-13T04:49:12;10.30;99.90
14405;DHT22;14983;50.866;4.304;2022-10-13T04:51:44;12.90;99.90
14405;DHT22;14983;50.866;4.304;2022-10-13T04:54:16;13.90;99.90
14405;DHT22;14983;50.866;4.304;2022-10-13T04:56:48;12.60;99.90
14405;DHT22;14983;50.866;4.304;2022-10-13T04:59:24;12.70;99.90
14405;DHT22;14983;50.866;4.304;2022-10-13T05:01:57;12.60;99.90
14405;DHT22;14983;50.866;4.304;2022-10-13T05:04:27;12.60;99.90
14405;DHT22;14983;50.866;4.304;2022-10-13T05:06:58;12.60;99.90
14405;DHT22;14983;50.866;4.304;2022-10-13T05:09:32;12.60;99.90
14405;DHT22;14983;50.866;4.304;2022-10-13T05:12:05;12.60;99.90
14405;DHT22;14983;50.866;4.304;2022-10-13T05:14:39;12.60;99.90
14405;DHT22;14983;50.866;4.304;2022-10-13T05:17:22;12.70;99.90
14405;DHT22;14983;50.866;4.304;2022-10-13T05:19:49;13.90;99.90
14405;DHT22;14983;50.866;4.304;2022-10-13T05:22:26;12.70;99.90
14405;DHT22;14983;50.866;4.304;2022-10-13T05:24:57;13.10;99.90
14405;DHT22;14983;50.866;4.304;2022-10-13T05:27:29;12.60;99.90
14405;DHT22;14983;50.866;4.304;2022-10-13T05:30:03;12.60;99.90
14405;DHT22;14983;50.866;4.304;2022-10-13T05:32:35;12.70;99.90
14405;DHT22;14983;50.866;4.304;2022-10-13T05:35:04;12.60;99.90
14405;DHT22;14983;50.866;4.304;2022-10-13T05:37:38;12.60;99.90
14405;DHT22;14983;50.866;4.304;2022-10-13T05:40:13;12.70;99.90
14405;DHT22;14983;50.866;4.304;2022-10-13T05:42:45;12.70;99.90
14405;DHT22;14983;50.866;4.304;2022-10-13T05:45:14;12.70;99.90
14405;DHT22;14983;50.866;4.304;2022-10-13T05:47:44;12.80;99.90
14405;DHT22;14983;50.866;4.304;2022-10-13T05:50:21;12.60;99.90
14405;DHT22;14983;50.866;4.304;2022-10-13T05:52:53;12.60;99.90
14405;DHT22;14983;50.866;4.304;2022-10-13T05:55:29;12.60;99.90
14405;DHT22;14983;50.866;4.304;2022-10-13T05:58:00;12.60;99.90
14405;DHT22;14983;50.866;4.304;2022-10-13T06:00:35;12.60;99.90
14405;DHT22;14983;50.866;4.304;2022-10-13T06:03:11;12.60;99.90
14405;DHT22;14983;50.866;4.304;2022-10-13T06:05:47;12.60;99.90
14405;DHT22;14983;50.866;4.304;2022-10-13T06:08:22;12.60;99.90
14405;DHT22;14983;50.866;4.304;2022-10-13T06:10:50;12.60;99.90
14405;DHT22;14983;50.866;4.304;2022-10-13T06:13:21;12.60;99.90
14405;DHT22;14983;50.866;4.304;2022-10-13T06:15:55;12.60;99.90
14405;DHT22;14983;50.866;4.304;2022-10-13T06:18:22;12.60;99.90
14405;DHT22;14983;50.866;4.304;2022-10-13T06:20:55;13.00;99.90
14405;DHT22;14983;50.866;4.304;2022-10-13T06:23:28;12.70;99.90
14405;DHT22;14983;50.866;4.304;2022-10-13T06:25:58;12.60;99.90
14405;DHT22;14983;50.866;4.304;2022-10-13T06:28:26;13.70;99.90
14405;DHT22;14983;50.866;4.304;2022-10-13T06:30:54;12.70;99.90
14405;DHT22;14983;50.866;4.304;2022-10-13T06:33:24;12.70;99.90
14405;DHT22;14983;50.866;4.304;2022-10-13T06:35:52;12.80;99.90
14405;DHT22;14983;50.866;4.304;2022-10-13T06:38:23;12.90;99.90
14405;DHT22;14983;50.866;4.304;2022-10-13T06:40:50;14.90;99.90
14405;DHT22;14983;50.866;4.304;2022-10-13T06:43:17;12.90;99.90
14405;DHT22;14983;50.866;4.304;2022-10-13T06:45:46;12.80;99.90
14405;DHT22;14983;50.866;4.304;2022-10-13T06:48:15;12.80;99.90
14405;DHT22;14983;50.866;4.304;2022-10-13T06:50:42;12.80;99.90
14405;DHT22;14983;50.866;4.304;2022-10-13T06:53:12;12.90;99.90
14405;DHT22;14983;50.866;4.304;2022-10-13T06:55:42;12.90;99.90
14405;DHT22;14983;50.866;4.304;2022-10-13T06:58:12;12.90;99.90
14405;DHT22;14983;50.866;4.304;2022-10-13T07:00:41;13.00;99.90
14405;DHT22;14983;50.866;4.304;2022-10-13T07:03:10;13.10;99.90
14405;DHT22;14983;50.866;4.304;2022-10-13T07:05:44;13.10;99.90
14405;DHT22;14983;50.866;4.304;2022-10-13T07:08:16;13.10;99.90
14405;DHT22;14983;50.866;4.304;2022-10-13T07:10:49;13.10;99.90
14405;DHT22;14983;50.866;4.304;2022-10-13T07:13:18;13.20;99.90
14405;DHT22;14983;50.866;4.304;2022-10-13T07:15:52;13.20;99.90
14405;DHT22;14983;50.866;4.304;2022-10-13T07:18:33;13.10;99.90
14405;DHT22;14983;50.866;4.304;2022-10-13T07:21:08;13.20;99.90
14405;DHT22;14983;50.866;4.304;2022-10-13T07:23:36;13.10;99.90
14405;DHT22;14983;50.866;4.304;2022-10-13T07:26:06;13.00;99.90
14405;DHT22;14983;50.866;4.304;2022-10-13T07:28:34;13.10;99.90
14405;DHT22;14983;50.866;4.304;2022-10-13T07:31:06;13.00;99.90
14405;DHT22;14983;50.866;4.304;2022-10-13T07:33:37;13.20;99.90
14405;DHT22;14983;50.866;4.304;2022-10-13T07:36:08;13.10;99.90
14405;DHT22;14983;50.866;4.304;2022-10-13T07:38:38;13.10;99.90
14405;DHT22;14983;50.866;4.304;2022-10-13T07:41:12;13.20;99.90
14405;DHT22;14983;50.866;4.304;2022-10-13T07:43:40;13.10;99.90
14405;DHT22;14983;50.866;4.304;2022-10-13T07:46:09;13.10;99.90
14405;DHT22;14983;50.866;4.304;2022-10-13T07:48:39;13.10;99.90
14405;DHT22;14983;50.866;4.304;2022-10-13T07:51:15;13.20;99.90
14405;DHT22;14983;50.866;4.304;2022-10-13T07:53:48;13.20;99.90
14405;DHT22;14983;50.866;4.304;2022-10-13T07:56:15;13.30;99.90
14405;DHT22;14983;50.866;4.304;2022-10-13T07:58:53;13.30;99.90
14405;DHT22;14983;50.866;4.304;2022-10-13T08:01:22;13.30;99.90
14405;DHT22;14983;50.866;4.304;2022-10-13T08:03:54;14.90;99.90
14405;DHT22;14983;50.866;4.304;2022-10-13T08:06:29;13.50;99.90
14405;DHT22;14983;50.866;4.304;2022-10-13T08:09:03;13.40;99.90
14405;DHT22;14983;50.866;4.304;2022-10-13T08:11:33;13.40;99.90
14405;DHT22;14983;50.866;4.304;2022-10-13T08:14:02;13.40;99.90
14405;DHT22;14983;50.866;4.304;2022-10-13T08:16:31;13.40;99.90
14405;DHT22;14983;50.866;4.304;2022-10-13T08:18:58;13.50;99.90
14405;DHT22;14983;50.866;4.304;2022-10-13T08:21:29;13.50;99.90
14405;DHT22;14983;50.866;4.304;2022-10-13T08:23:58;13.60;99.90
14405;DHT22;14983;50.866;4.304;2022-10-13T08:26:28;13.80;99.90
14405;DHT22;14983;50.866;4.304;2022-10-13T08:28:56;13.80;99.90
14405;DHT22;14983;50.866;4.304;2022-10-13T08:31:23;13.80;99.90
14405;DHT22;14983;50.866;4.304;2022-10-13T08:33:51;13.90;99.90
14405;DHT22;14983;50.866;4.304;2022-10-13T08:36:18;13.80;99.90
14405;DHT22;14983;50.866;4.304;2022-10-13T08:38:47;13.70;99.90
14405;DHT22;14983;50.866;4.304;2022-10-13T08:41:17;13.80;99.90
14405;DHT22;14983;50.866;4.304;2022-10-13T08:43:50;13.90;99.90
14405;DHT22;14983;50.866;4.304;2022-10-13T08:46:22;14.00;99.90
14405;DHT22;14983;50.866;4.304;2022-10-13T08:48:51;13.90;99.90
14405;DHT22;14983;50.866;4.304;2022-10-13T08:51:18;14.00;99.90
14405;DHT22;14983;50.866;4.304;2022-10-13T08:53:47;14.00;99.90
14405;DHT22;14983;50.866;4.304;2022-10-13T08:56:17;14.40;99.90
14405;DHT22;14983;50.866;4.304;2022-10-13T08:58:52;14.10;99.90
14405;DHT22;14983;50.866;4.304;2022-10-13T09:01:26;14.10;99.90
14405;DHT22;14983;50.866;4.304;2022-10-13T09:03:59;14.00;99.90
14405;DHT22;14983;50.866;4.304;2022-10-13T09:06:32;14.00;99.90
14405;DHT22;14983;50.866;4.304;2022-10-13T09:09:03;14.20;99.90
14405;DHT22;14983;50.866;4.304;2022-10-13T09:11:38;14.10;99.90
14405;DHT22;14983;50.866;4.304;2022-10-13T09:14:07;14.10;99.90
14405;DHT22;14983;50.866;4.304;2022-10-13T09:16:39;14.20;99.90
14405;DHT22;14983;50.866;4.304;2022-10-13T09:22:14;14.30;99.90
14405;DHT22;14983;50.866;4.304;2022-10-13T09:24:44;14.10;99.90
14405;DHT22;14983;50.866;4.304;2022-10-13T09:27:17;15.10;99.90
14405;DHT22;14983;50.866;4.304;2022-10-13T09:29:45;14.20;99.90
14405;DHT22;14983;50.866;4.304;2022-10-13T09:32:16;14.20;99.90
14405;DHT22;14983;50.866;4.304;2022-10-13T09:34:43;14.20;99.90
14405;DHT22;14983;50.866;4.304;2022-10-13T09:37:19;14.20;99.90
14405;DHT22;14983;50.866;4.304;2022-10-13T09:40:12;14.20;99.90
14405;DHT22;14983;50.866;4.304;2022-10-13T09:42:43;14.20;99.90
14405;DHT22;14983;50.866;4.304;2022-10-13T09:45:19;14.30;99.90
14405;DHT22;14983;50.866;4.304;2022-10-13T09:47:49;14.30;99.90
14405;DHT22;14983;50.866;4.304;2022-10-13T09:50:21;14.40;99.90
14405;DHT22;14983;50.866;4.304;2022-10-13T09:53:09;14.30;99.90
14405;DHT22;14983;50.866;4.304;2022-10-13T09:55:42;14.20;99.90
14405;DHT22;14983;50.866;4.304;2022-10-13T09:58:18;14.70;99.90
14405;DHT22;14983;50.866;4.304;2022-10-13T10:00:48;14.30;99.90
14405;DHT22;14983;50.866;4.304;2022-10-13T10:03:19;14.50;99.90
14405;DHT22;14983;50.866;4.304;2022-10-13T10:05:55;14.60;99.90
14405;DHT22;14983;50.866;4.304;2022-10-13T10:08:26;14.50;99.90
14405;DHT22;14983;50.866;4.304;2022-10-13T10:10:56;14.50;99.90
14405;DHT22;14983;50.866;4.304;2022-10-13T10:13:26;14.50;99.90
14405;DHT22;14983;50.866;4.304;2022-10-13T10:15:55;14.50;99.90
14405;DHT22;14983;50.866;4.304;2022-10-13T10:18:32;14.40;99.90
14405;DHT22;14983;50.866;4.304;2022-10-13T10:21:07;14.40;99.90
14405;DHT22;14983;50.866;4.304;2022-10-13T10:23:45;14.40;99.90
14405;DHT22;14983;50.866;4.304;2022-10-13T10:26:24;14.40;99.90
14405;DHT22;14983;50.866;4.304;2022-10-13T10:29:11;14.50;99.90
14405;DHT22;14983;50.866;4.304;2022-10-13T10:32:02;14.40;99.90
14405;DHT22;14983;50.866;4.304;2022-10-13T10:34:39;14.40;99.90
14405;DHT22;14983;50.866;4.304;2022-10-13T10:37:24;14.30;99.90
14405;DHT22;14983;50.866;4.304;2022-10-13T10:40:04;14.30;99.90
14405;DHT22;14983;50.866;4.304;2022-10-13T10:43:13;14.30;99.90
14405;DHT22;14983;50.866;4.304;2022-10-13T10:45:47;14.10;99.90
14405;DHT22;14983;50.866;4.304;2022-10-13T10:48:27;13.90;99.90
14405;DHT22;14983;50.866;4.304;2022-10-13T10:51:05;13.90;99.90
14405;DHT22;14983;50.866;4.304;2022-10-13T10:53:37;13.80;99.90
14405;DHT22;14983;50.866;4.304;2022-10-13T10:56:17;13.80;99.90
14405;DHT22;14983;50.866;4.304;2022-10-13T10:58:51;13.80;99.90
14405;DHT22;14983;50.866;4.304;2022-10-13T11:01:30;13.70;99.90
14405;DHT22;14983;50.866;4.304;2022-10-13T11:04:30;13.60;99.90
14405;DHT22;14983;50.866;4.304;2022-10-13T11:07:01;13.50;99.90
14405;DHT22;14983;50.866;4.304;2022-10-13T11:10:14;13.40;99.90
14405;DHT22;14983;50.866;4.304;2022-10-13T11:15:41;13.30;99.90
14405;DHT22;14983;50.866;4.304;2022-10-13T11:21:19;13.30;99.90
14405;DHT22;14983;50.866;4.304;2022-10-13T11:23:52;13.20;99.90
14405;DHT22;14983;50.866;4.304;2022-10-13T11:26:31;13.80;99.90
14405;DHT22;14983;50.866;4.304;2022-10-13T11:29:17;13.50;99.90
14405;DHT22;14983;50.866;4.304;2022-10-13T11:31:50;13.60;99.90
14405;DHT22;14983;50.866;4.304;2022-10-13T11:34:29;13.90;99.90
14405;DHT22;14983;50.866;4.304;2022-10-13T11:37:17;14.20;99.90
14405;DHT22;14983;50.866;4.304;2022-10-13T11:40:14;14.00;99.90
14405;DHT22;14983;50.866;4.304;2022-10-13T11:46:17;14.00;99.90
14405;DHT22;14983;50.866;4.304;2022-10-13T11:55:12;13.90;99.90
14405;DHT22;14983;50.866;4.304;2022-10-13T11:57:46;13.90;99.90
14405;DHT22;14983;50.866;4.304;2022-10-13T12:00:16;13.90;99.90
14405;DHT22;14983;50.866;4.304;2022-10-13T12:02:48;13.90;99.90
14405;DHT22;14983;50.866;4.304;2022-10-13T12:05:21;13.90;99.90
14405;DHT22;14983;50.866;4.304;2022-10-13T12:08:01;13.80;99.90
14405;DHT22;14983;50.866;4.304;2022-10-13T12:10:31;13.80;99.90
14405;DHT22;14983;50.866;4.304;2022-10-13T12:12:58;13.90;99.90
14405;DHT22;14983;50.866;4.304;2022-10-13T12:15:34;14.00;99.90
14405;DHT22;14983;50.866;4.304;2022-10-13T12:18:15;13.90;99.90
14405;DHT22;14983;50.866;4.304;2022-10-13T12:20:51;13.90;99.90
14405;DHT22;14983;50.866;4.304;2022-10-13T12:23:19;13.90;99.90
14405;DHT22;14983;50.866;4.304;2022-10-13T12:25:50;13.90;99.90
14405;DHT22;14983;50.866;4.304;2022-10-13T12:28:22;13.90;99.90
14405;DHT22;14983;50.866;4.304;2022-10-13T12:30:52;14.50;99.90
14405;DHT22;14983;50.866;4.304;2022-10-13T12:33:25;14.00;99.90
14405;DHT22;14983;50.866;4.304;2022-10-13T12:35:55;14.10;99.90
14405;DHT22;14983;50.866;4.304;2022-10-13T12:38:24;14.00;99.90
14405;DHT22;14983;50.866;4.304;2022-10-13T12:40:51;14.40;99.90
14405;DHT22;14983;50.866;4.304;2022-10-13T12:43:21;14.20;99.90
14405;DHT22;14983;50.866;4.304;2022-10-13T12:45:50;14.80;99.90
14405;DHT22;14983;50.866;4.304;2022-10-13T12:48:28;14.20;99.90
14405;DHT22;14983;50.866;4.304;2022-10-13T12:51:07;14.20;99.90
14405;DHT22;14983;50.866;4.304;2022-10-13T12:53:36;14.20;99.90
14405;DHT22;14983;50.866;4.304;2022-10-13T12:56:04;14.30;99.90
14405;DHT22;14983;50.866;4.304;2022-10-13T12:58:34;14.10;99.90
14405;DHT22;14983;50.866;4.304;2022-10-13T13:01:06;14.10;99.90
14405;DHT22;14983;50.866;4.304;2022-10-13T13:03:36;14.00;99.90
14405;DHT22;14983;50.866;4.304;2022-10-13T13:06:10;14.00;99.90
14405;DHT22;14983;50.866;4.304;2022-10-13T13:08:39;14.10;99.90
14405;DHT22;14983;50.866;4.304;2022-10-13T13:11:21;13.90;99.90
14405;DHT22;14983;50.866;4.304;2022-10-13T13:13:49;13.80;99.90
14405;DHT22;14983;50.866;4.304;2022-10-13T13:16:19;13.80;99.90
14405;DHT22;14983;50.866;4.304;2022-10-13T13:18:46;12.40;99.90
14405;DHT22;14983;50.866;4.304;2022-10-13T13:21:15;13.60;99.90
14405;DHT22;14983;50.866;4.304;2022-10-13T13:23:45;13.70;99.90
14405;DHT22;14983;50.866;4.304;2022-10-13T13:26:14;13.70;99.90
14405;DHT22;14983;50.866;4.304;2022-10-13T13:28:44;14.80;99.90
14405;DHT22;14983;50.866;4.304;2022-10-13T13:31:16;13.60;99.90
14405;DHT22;14983;50.866;4.304;2022-10-13T13:33:43;13.70;99.90
14405;DHT22;14983;50.866;4.304;2022-10-13T13:36:14;13.70;99.90
14405;DHT22;14983;50.866;4.304;2022-10-13T13:38:44;14.30;99.90
14405;DHT22;14983;50.866;4.304;2022-10-13T13:41:11;14.00;99.90
14405;DHT22;14983;50.866;4.304;2022-10-13T13:43:39;13.80;99.90
14405;DHT22;14983;50.866;4.304;2022-10-13T13:46:13;13.90;99.90
14405;DHT22;14983;50.866;4.304;2022-10-13T13:48:40;13.80;99.90
14405;DHT22;14983;50.866;4.304;2022-10-13T13:51:09;13.80;99.90
14405;DHT22;14983;50.866;4.304;2022-10-13T13:53:36;13.90;99.90
14405;DHT22;14983;50.866;4.304;2022-10-13T13:56:09;13.90;99.90
14405;DHT22;14983;50.866;4.304;2022-10-13T13:58:38;14.00;99.90
14405;DHT22;14983;50.866;4.304;2022-10-13T14:01:07;14.10;99.90
14405;DHT22;14983;50.866;4.304;2022-10-13T14:03:34;14.20;99.90
14405;DHT22;14983;50.866;4.304;2022-10-13T14:06:07;14.30;99.90
14405;DHT22;14983;50.866;4.304;2022-10-13T14:08:37;14.30;99.90
14405;DHT22;14983;50.866;4.304;2022-10-13T14:11:09;14.20;99.90
14405;DHT22;14983;50.866;4.304;2022-10-13T14:13:41;14.20;99.90
14405;DHT22;14983;50.866;4.304;2022-10-13T14:16:14;14.30;99.90
14405;DHT22;14983;50.866;4.304;2022-10-13T14:18:44;14.30;99.90
14405;DHT22;14983;50.866;4.304;2022-10-13T14:21:17;14.40;99.90
14405;DHT22;14983;50.866;4.304;2022-10-13T14:23:48;14.60;99.90
14405;DHT22;14983;50.866;4.304;2022-10-13T14:26:17;14.70;99.90
14405;DHT22;14983;50.866;4.304;2022-10-13T14:28:45;14.60;99.90
14405;DHT22;14983;50.866;4.304;2022-10-13T14:31:21;14.50;99.90
14405;DHT22;14983;50.866;4.304;2022-10-13T14:33:48;14.60;99.90
14405;DHT22;14983;50.866;4.304;2022-10-13T14:36:15;14.60;99.90
14405;DHT22;14983;50.866;4.304;2022-10-13T14:38:44;14.70;99.90
14405;DHT22;14983;50.866;4.304;2022-10-13T14:41:27;14.40;99.90
14405;DHT22;14983;50.866;4.304;2022-10-13T14:43:55;14.40;99.90
14405;DHT22;14983;50.866;4.304;2022-10-13T14:46:23;15.60;99.90
14405;DHT22;14983;50.866;4.304;2022-10-13T14:48:50;14.20;99.90
14405;DHT22;14983;50.866;4.304;2022-10-13T14:51:18;14.30;99.90
14405;DHT22;14983;50.866;4.304;2022-10-13T14:53:45;14.20;99.90
14405;DHT22;14983;50.866;4.304;2022-10-13T14:56:17;14.10;99.90
14405;DHT22;14983;50.866;4.304;2022-10-13T14:58:55;14.20;99.90
14405;DHT22;14983;50.866;4.304;2022-10-13T15:01:22;14.10;99.90
14405;DHT22;14983;50.866;4.304;2022-10-13T15:03:49;14.10;99.90
14405;DHT22;14983;50.866;4.304;2022-10-13T15:06:19;14.00;99.90
14405;DHT22;14983;50.866;4.304;2022-10-13T15:08:47;14.00;99.90
14405;DHT22;14983;50.866;4.304;2022-10-13T15:11:14;14.70;99.90
14405;DHT22;14983;50.866;4.304;2022-10-13T15:13:42;14.10;99.90
14405;DHT22;14983;50.866;4.304;2022-10-13T15:16:15;14.00;99.90
14405;DHT22;14983;50.866;4.304;2022-10-13T15:18:43;14.70;99.90
14405;DHT22;14983;50.866;4.304;2022-10-13T15:21:10;14.50;99.90
14405;DHT22;14983;50.866;4.304;2022-10-13T15:23:38;14.00;99.90
14405;DHT22;14983;50.866;4.304;2022-10-13T15:26:05;15.00;99.90
14405;DHT22;14983;50.866;4.304;2022-10-13T15:28:34;15.60;99.90
14405;DHT22;14983;50.866;4.304;2022-10-13T15:31:02;14.00;99.90
14405;DHT22;14983;50.866;4.304;2022-10-13T15:33:30;14.10;99.90
14405;DHT22;14983;50.866;4.304;2022-10-13T15:35:58;14.20;99.90
14405;DHT22;14983;50.866;4.304;2022-10-13T15:38:25;14.10;99.90
14405;DHT22;14983;50.866;4.304;2022-10-13T15:40:57;14.00;99.90
14405;DHT22;14983;50.866;4.304;2022-10-13T15:43:26;14.00;99.90
14405;DHT22;14983;50.866;4.304;2022-10-13T15:45:54;14.00;99.90
14405;DHT22;14983;50.866;4.304;2022-10-13T15:48:22;14.00;99.90
14405;DHT22;14983;50.866;4.304;2022-10-13T15:50:50;13.90;99.90
14405;DHT22;14983;50.866;4.304;2022-10-13T15:53:17;14.50;99.90
14405;DHT22;14983;50.866;4.304;2022-10-13T15:55:45;14.20;99.90
14405;DHT22;14983;50.866;4.304;2022-10-13T15:58:14;15.40;99.90
14405;DHT22;14983;50.866;4.304;2022-10-13T16:00:41;13.80;99.90
14405;DHT22;14983;50.866;4.304;2022-10-13T16:03:12;13.80;99.90
14405;DHT22;14983;50.866;4.304;2022-10-13T16:05:40;13.80;99.90
14405;DHT22;14983;50.866;4.304;2022-10-13T16:08:09;13.80;99.90
14405;DHT22;14983;50.866;4.304;2022-10-13T16:11:00;13.80;99.90
14405;DHT22;14983;50.866;4.304;2022-10-13T16:13:44;13.80;99.90
14405;DHT22;14983;50.866;4.304;2022-10-13T16:16:11;13.70;99.90
14405;DHT22;14983;50.866;4.304;2022-10-13T16:18:44;13.80;99.90
14405;DHT22;14983;50.866;4.304;2022-10-13T16:21:22;13.70;99.90
14405;DHT22;14983;50.866;4.304;2022-10-13T16:23:52;13.80;99.90
14405;DHT22;14983;50.866;4.304;2022-10-13T16:26:20;13.70;99.90
14405;DHT22;14983;50.866;4.304;2022-10-13T16:28:53;13.70;99.90
14405;DHT22;14983;50.866;4.304;2022-10-13T16:31:23;13.60;99.90
14405;DHT22;14983;50.866;4.304;2022-10-13T16:33:56;13.80;99.90